createdAt,value
2019-02-10T00:02:13.828Z,7.50
2019-02-10T00:04:44.752Z,7.55
2019-02-10T00:07:17.682Z,7.47
2019-02-10T00:09:48.599Z,7.46
2019-02-10T00:12:20.409Z,7.46
2019-02-10T00:14:51.355Z,7.40
2019-02-10T00:17:22.259Z,7.33
2019-02-10T00:19:53.187Z,7.33
2019-02-10T00:22:24.064Z,7.25
2019-02-10T00:24:54.974Z,7.14
2019-02-10T00:27:25.868Z,7.02
2019-02-10T00:29:56.801Z,7.00
2019-02-10T00:32:27.795Z,6.93
2019-02-10T00:34:58.712Z,6.91
2019-02-10T00:37:29.607Z,6.90
2019-02-10T00:40:00.519Z,6.86
2019-02-10T00:42:31.402Z,6.83
2019-02-10T00:45:02.342Z,6.76
2019-02-10T00:47:33.233Z,6.80
2019-02-10T00:50:04.361Z,6.79
2019-02-10T00:52:35.241Z,6.77
2019-02-10T00:55:06.507Z,6.73
2019-02-10T00:57:37.393Z,6.75
2019-02-10T01:00:09.847Z,6.68
2019-02-10T01:02:40.739Z,6.69
2019-02-10T01:05:11.724Z,6.69
2019-02-10T01:07:42.603Z,6.70
2019-02-10T01:10:14.010Z,6.68
2019-02-10T01:12:45.819Z,6.68
2019-02-10T01:15:16.972Z,6.58
2019-02-10T01:17:47.930Z,6.57
2019-02-10T01:20:18.845Z,6.59
2019-02-10T01:22:49.811Z,6.62
2019-02-10T01:25:20.732Z,6.61
2019-02-10T01:27:51.623Z,6.64
2019-02-10T01:30:22.576Z,6.60
2019-02-10T01:32:53.480Z,6.60
2019-02-10T01:35:24.389Z,6.56
2019-02-10T01:37:55.282Z,6.60
2019-02-10T01:40:26.193Z,6.63
2019-02-10T01:42:57.077Z,6.57
2019-02-10T01:45:28.025Z,6.66
2019-02-10T01:47:58.911Z,6.71
2019-02-10T01:50:29.834Z,6.73
2019-02-10T01:53:00.722Z,6.77
2019-02-10T01:55:32.940Z,6.82
2019-02-10T01:58:03.921Z,6.87
2019-02-10T02:00:35.033Z,6.79
2019-02-10T02:03:05.927Z,6.81
2019-02-10T02:05:36.835Z,6.88
2019-02-10T02:08:07.724Z,6.86
2019-02-10T02:10:38.637Z,6.84
2019-02-10T02:13:10.367Z,6.88
2019-02-10T02:15:41.309Z,6.94
2019-02-10T02:18:12.299Z,6.95
2019-02-10T02:20:43.218Z,7.03
2019-02-10T02:23:14.115Z,6.96
2019-02-10T02:25:45.036Z,7.04
2019-02-10T02:28:15.928Z,6.97
2019-02-10T02:30:46.912Z,6.94
2019-02-10T02:33:17.796Z,7.01
2019-02-10T02:35:48.730Z,6.98
2019-02-10T02:38:19.617Z,7.03
2019-02-10T02:40:50.540Z,7.02
2019-02-10T02:43:21.431Z,7.02
2019-02-10T02:45:52.468Z,7.01
2019-02-10T02:48:23.355Z,6.93
2019-02-10T02:50:54.269Z,6.87
2019-02-10T02:53:25.169Z,6.88
2019-02-10T02:55:56.021Z,6.84
2019-02-10T02:58:26.905Z,6.80
2019-02-10T03:00:57.907Z,6.90
2019-02-10T03:03:28.799Z,6.94
2019-02-10T03:06:01.691Z,6.88
2019-02-10T03:08:32.634Z,6.84
2019-02-10T03:11:03.551Z,6.85
2019-02-10T03:13:35.214Z,6.78
2019-02-10T03:16:06.153Z,6.75
2019-02-10T03:18:37.044Z,6.78
2019-02-10T03:21:07.945Z,6.80
2019-02-10T03:23:38.839Z,6.75
2019-02-10T03:26:09.756Z,6.76
2019-02-10T03:28:40.645Z,6.72
2019-02-10T03:31:11.581Z,6.72
2019-02-10T03:33:42.478Z,6.77
2019-02-10T03:36:13.387Z,6.74
2019-02-10T03:38:44.366Z,6.72
2019-02-10T03:41:15.474Z,6.69
2019-02-10T03:43:46.364Z,6.64
2019-02-10T03:46:17.300Z,6.67
2019-02-10T03:48:48.189Z,6.61
2019-02-10T03:51:19.115Z,6.58
2019-02-10T03:53:50.008Z,6.61
2019-02-10T03:56:20.934Z,6.58
2019-02-10T03:58:51.829Z,6.54
2019-02-10T04:01:22.904Z,6.56
2019-02-10T04:03:53.802Z,6.59
2019-02-10T04:06:24.724Z,6.60
2019-02-10T04:08:55.625Z,6.56
2019-02-10T04:11:26.545Z,6.54
2019-02-10T04:13:57.431Z,6.54
2019-02-10T04:16:28.370Z,6.54
2019-02-10T04:18:59.256Z,6.54
2019-02-10T04:21:30.194Z,6.52
2019-02-10T04:24:01.089Z,6.48
2019-02-10T04:26:32.003Z,6.48
2019-02-10T04:29:02.889Z,6.47
2019-02-10T04:31:33.846Z,6.42
2019-02-10T04:34:04.739Z,6.38
2019-02-10T04:36:35.660Z,6.38
2019-02-10T04:39:06.647Z,6.41
2019-02-10T04:41:37.562Z,6.41
2019-02-10T04:44:08.458Z,6.31
2019-02-10T04:46:39.416Z,6.39
2019-02-10T04:49:10.299Z,6.35
2019-02-10T04:51:41.233Z,6.31
2019-02-10T04:54:12.117Z,6.31
2019-02-10T04:56:43.043Z,6.32
2019-02-10T04:59:13.931Z,6.29
2019-02-10T05:01:45.235Z,6.28
2019-02-10T05:04:16.135Z,6.24
2019-02-10T05:06:47.062Z,6.21
2019-02-10T05:09:17.955Z,6.18
2019-02-10T05:11:48.883Z,6.20
2019-02-10T05:14:19.764Z,6.20
2019-02-10T05:16:50.792Z,6.18
2019-02-10T05:19:21.670Z,6.21
2019-02-10T05:21:52.597Z,6.15
2019-02-10T05:24:23.487Z,6.21
2019-02-10T05:26:54.406Z,6.22
2019-02-10T05:29:25.310Z,6.22
2019-02-10T05:31:56.292Z,6.20
2019-02-10T05:34:27.202Z,6.21
2019-02-10T05:36:58.145Z,6.20
2019-02-10T05:39:29.042Z,6.16
2019-02-10T05:41:59.973Z,6.18
2019-02-10T05:44:30.857Z,6.17
2019-02-10T05:47:01.802Z,6.17
2019-02-10T05:49:32.859Z,6.14
2019-02-10T05:52:03.781Z,6.16
2019-02-10T05:54:34.662Z,6.12
2019-02-10T05:57:05.584Z,6.08
2019-02-10T05:59:36.478Z,6.11
2019-02-10T06:02:15.915Z,6.11
2019-02-10T06:04:46.802Z,6.14
2019-02-10T06:07:17.826Z,6.12
2019-02-10T06:09:48.712Z,6.18
2019-02-10T06:12:19.710Z,6.13
2019-02-10T06:14:51.379Z,6.17
2019-02-10T06:17:22.482Z,6.15
2019-02-10T06:19:53.384Z,6.12
2019-02-10T06:22:24.296Z,6.09
2019-02-10T06:24:55.176Z,6.09
2019-02-10T06:27:32.083Z,6.09
2019-02-10T06:30:03.077Z,6.08
2019-02-10T06:32:34.026Z,6.01
2019-02-10T06:35:06.795Z,6.03
2019-02-10T06:37:37.715Z,6.11
2019-02-10T06:40:09.513Z,6.13
2019-02-10T06:42:40.431Z,6.16
2019-02-10T06:45:11.723Z,6.18
2019-02-10T06:47:42.665Z,6.17
2019-02-10T06:50:13.568Z,6.21
2019-02-10T06:52:44.491Z,6.16
2019-02-10T06:55:15.391Z,6.31
2019-02-10T06:57:46.396Z,6.36
2019-02-10T07:00:24.724Z,6.48
2019-02-10T07:03:32.064Z,6.59
2019-02-10T07:06:02.970Z,6.69
2019-02-10T07:08:33.960Z,6.90
2019-02-10T07:11:04.849Z,7.04
2019-02-10T07:13:38.512Z,7.19
2019-02-10T07:16:29.111Z,7.31
2019-02-10T07:19:32.032Z,7.38
2019-02-10T07:22:34.468Z,7.42
2019-02-10T07:25:17.337Z,7.60
2019-02-10T07:28:03.424Z,7.61
2019-02-10T07:30:52.202Z,7.77
2019-02-10T07:33:34.591Z,7.92
2019-02-10T07:36:10.413Z,8.07
2019-02-10T07:38:50.124Z,8.14
2019-02-10T07:41:43.761Z,8.21
2019-02-10T07:44:29.390Z,8.27
2019-02-10T07:47:24.265Z,8.29
2019-02-10T07:50:03.904Z,8.40
2019-02-10T07:52:40.640Z,8.48
2019-02-10T07:55:39.838Z,8.42
2019-02-10T07:58:30.087Z,8.49
2019-02-10T08:01:21.855Z,8.52
2019-02-10T08:04:07.711Z,8.56
2019-02-10T08:06:53.339Z,8.53
2019-02-10T08:09:41.994Z,8.50
2019-02-10T08:12:32.054Z,8.43
2019-02-10T08:15:17.191Z,8.51
2019-02-10T08:17:56.690Z,8.57
2019-02-10T08:20:42.618Z,8.54
2019-02-10T08:23:31.471Z,8.75
2019-02-10T08:26:14.579Z,8.84
2019-02-10T08:29:00.555Z,8.91
2019-02-10T08:31:51.002Z,8.94
2019-02-10T08:34:24.811Z,9.02
2019-02-10T08:37:15.159Z,9.09
2019-02-10T08:39:51.835Z,9.09
2019-02-10T08:42:25.695Z,9.15
2019-02-10T08:45:17.296Z,9.13
2019-02-10T08:47:51.139Z,9.12
2019-02-10T08:50:44.502Z,9.00
2019-02-10T08:53:18.334Z,9.03
2019-02-10T08:55:49.255Z,9.06
2019-02-10T08:58:20.203Z,8.96
2019-02-10T09:00:51.099Z,8.97
2019-02-10T09:03:22.037Z,8.99
2019-02-10T09:05:52.989Z,8.95
2019-02-10T09:08:23.907Z,8.96
2019-02-10T09:10:54.884Z,8.92
2019-02-10T09:13:25.828Z,8.95
2019-02-10T09:15:56.794Z,9.02
2019-02-10T09:18:27.711Z,9.10
2019-02-10T09:20:58.608Z,9.17
2019-02-10T09:23:29.539Z,9.29
2019-02-10T09:26:00.432Z,9.30
2019-02-10T09:28:31.402Z,9.40
2019-02-10T09:31:02.362Z,9.33
2019-02-10T09:33:33.290Z,9.41
2019-02-10T09:36:04.181Z,9.46
2019-02-10T09:38:35.109Z,9.44
2019-02-10T09:41:06.026Z,9.38
2019-02-10T09:43:37.079Z,9.37
2019-02-10T09:46:07.983Z,9.42
2019-02-10T09:48:38.910Z,9.41
2019-02-10T09:51:09.801Z,9.29
2019-02-10T09:53:40.723Z,9.35
2019-02-10T09:56:11.631Z,9.41
2019-02-10T09:58:42.588Z,9.36
2019-02-10T10:01:14.713Z,9.24
2019-02-10T10:03:45.993Z,9.14
2019-02-10T10:06:16.910Z,9.22
2019-02-10T10:08:47.844Z,9.25
2019-02-10T10:11:18.789Z,9.21
2019-02-10T10:13:49.791Z,9.24
2019-02-10T10:16:20.759Z,9.20
2019-02-10T10:18:51.686Z,9.13
2019-02-10T10:21:22.575Z,9.16
2019-02-10T10:23:53.570Z,9.24
2019-02-10T10:26:24.467Z,9.27
2019-02-10T10:28:55.427Z,9.30
2019-02-10T10:31:26.315Z,9.24
2019-02-10T10:33:57.247Z,9.31
2019-02-10T10:36:28.146Z,9.32
2019-02-10T10:38:59.084Z,9.33
2019-02-10T10:41:29.990Z,9.38
2019-02-10T10:44:00.916Z,9.51
2019-02-10T10:46:31.814Z,9.49
2019-02-10T10:49:02.752Z,9.65
2019-02-10T10:51:33.640Z,9.66
2019-02-10T10:54:04.936Z,9.75
2019-02-10T10:56:35.866Z,9.85
2019-02-10T10:59:06.802Z,9.90
2019-02-10T11:01:37.700Z,10.00
2019-02-10T11:04:08.741Z,10.12
2019-02-10T11:06:39.705Z,10.15
2019-02-10T11:09:10.663Z,10.18
2019-02-10T11:11:41.569Z,10.29
2019-02-10T11:14:12.549Z,10.40
2019-02-10T11:16:43.461Z,10.50
2019-02-10T11:19:16.892Z,10.51
2019-02-10T11:21:47.798Z,10.60
2019-02-10T11:24:18.731Z,10.72
2019-02-10T11:26:49.637Z,10.76
2019-02-10T11:29:20.593Z,10.81
2019-02-10T11:31:51.508Z,10.84
2019-02-10T11:34:22.448Z,11.13
2019-02-10T11:36:53.354Z,11.55
2019-02-10T11:39:24.280Z,11.34
2019-02-10T11:41:55.272Z,11.21
2019-02-10T11:44:26.237Z,11.20
2019-02-10T11:46:57.143Z,11.14
2019-02-10T11:49:28.083Z,11.07
2019-02-10T11:51:58.991Z,10.99
2019-02-10T11:54:29.923Z,10.93
2019-02-10T11:57:00.830Z,10.90
2019-02-10T11:59:32.078Z,10.71
2019-02-10T12:02:02.982Z,10.85
2019-02-10T12:04:33.928Z,10.86
2019-02-10T12:07:11.969Z,10.88
2019-02-10T12:09:42.913Z,10.89
2019-02-10T12:12:13.821Z,10.89
2019-02-10T12:14:44.797Z,10.86
2019-02-10T12:17:15.704Z,10.89
2019-02-10T12:19:47.440Z,10.86
2019-02-10T12:22:18.344Z,10.81
2019-02-10T12:24:49.278Z,10.87
2019-02-10T12:27:20.193Z,10.84
2019-02-10T12:29:51.297Z,10.89
2019-02-10T12:32:22.205Z,10.75
2019-02-10T12:34:53.143Z,10.73
2019-02-10T12:37:32.057Z,10.80
2019-02-10T12:39:59.850Z,10.59
2019-02-10T12:42:29.281Z,10.56
2019-02-10T12:45:00.396Z,10.57
2019-02-10T12:47:31.274Z,10.40
2019-02-10T12:50:02.204Z,10.41
2019-02-10T12:52:42.304Z,10.47
2019-02-10T12:55:39.533Z,10.51
2019-02-10T12:58:37.641Z,10.49
2019-02-10T13:01:27.682Z,10.47
2019-02-10T13:04:28.643Z,10.44
2019-02-10T13:07:29.776Z,10.38
2019-02-10T13:10:27.175Z,10.22
2019-02-10T13:13:19.355Z,10.05
2019-02-10T13:15:57.318Z,10.03
2019-02-10T13:18:41.305Z,10.05
2019-02-10T13:21:37.197Z,10.04
2019-02-10T13:24:25.034Z,10.04
2019-02-10T13:27:13.980Z,9.92
2019-02-10T13:29:47.050Z,9.86
2019-02-10T13:32:17.937Z,9.83
2019-02-10T13:34:49.036Z,9.85
2019-02-10T13:37:20.005Z,9.81
2019-02-10T13:39:50.938Z,9.79
2019-02-10T13:42:21.900Z,9.79
2019-02-10T13:44:52.829Z,9.66
2019-02-10T13:47:23.760Z,9.72
2019-02-10T13:49:54.700Z,9.68
2019-02-10T13:52:25.596Z,9.63
2019-02-10T13:54:56.524Z,9.67
2019-02-10T13:57:27.417Z,9.64
2019-02-10T13:59:58.333Z,9.59
2019-02-10T14:02:29.226Z,9.67
2019-02-10T14:05:00.245Z,9.65
2019-02-10T14:07:31.158Z,9.57
2019-02-10T14:10:02.071Z,9.53
2019-02-10T14:12:32.955Z,9.41
2019-02-10T14:15:04.582Z,9.36
2019-02-10T14:17:35.495Z,9.37
2019-02-10T14:20:09.872Z,9.33
2019-02-10T14:22:41.606Z,9.27
2019-02-10T14:25:12.536Z,9.04
2019-02-10T14:27:43.434Z,9.15
2019-02-10T14:30:22.514Z,9.16
2019-02-10T14:32:53.536Z,9.09
2019-02-10T14:35:24.627Z,8.96
2019-02-10T14:37:58.453Z,9.06
2019-02-10T14:40:34.090Z,8.92
2019-02-10T14:43:09.785Z,8.95
2019-02-10T14:45:45.756Z,8.95
2019-02-10T14:48:30.721Z,8.89
2019-02-10T14:51:10.917Z,8.76
2019-02-10T14:53:55.711Z,8.60
2019-02-10T14:56:27.593Z,8.51
2019-02-10T14:59:10.781Z,8.51
2019-02-10T15:01:43.751Z,8.44
2019-02-10T15:04:17.540Z,8.50
2019-02-10T15:06:51.490Z,8.52
2019-02-10T15:09:24.697Z,8.45
2019-02-10T15:11:59.900Z,8.25
2019-02-10T15:14:32.968Z,8.16
2019-02-10T15:17:06.174Z,8.02
2019-02-10T15:19:49.054Z,7.83
2019-02-10T15:22:24.981Z,7.85
2019-02-10T15:25:00.324Z,7.83
2019-02-10T15:27:36.111Z,7.69
2019-02-10T15:30:19.872Z,7.62
2019-02-10T15:32:52.503Z,7.64
2019-02-10T15:35:27.740Z,7.66
2019-02-10T15:38:04.954Z,7.54
2019-02-10T15:40:49.818Z,7.44
2019-02-10T15:43:18.926Z,7.35
2019-02-10T15:45:55.336Z,7.27
2019-02-10T15:48:34.979Z,7.14
2019-02-10T15:51:08.228Z,7.07
2019-02-10T15:53:51.233Z,7.04
2019-02-10T15:56:43.629Z,7.05
2019-02-10T15:59:47.756Z,6.98
2019-02-10T16:06:02.149Z,6.90
2019-02-10T16:12:36.406Z,6.74
2019-02-10T16:18:03.700Z,6.59
2019-02-10T16:20:35.273Z,6.60
2019-02-10T16:26:44.779Z,6.61
2019-02-10T16:29:21.184Z,6.52
2019-02-10T23:24:57.715Z,8.18
2019-02-10T23:30:35.535Z,8.09
2019-02-10T23:45:57.383Z,8.05
2019-02-10T23:59:17.292Z,7.92
